createdAt,value
2023-04-22T00:00:27.795Z,1.30
2023-04-22T00:02:57.262Z,1.00
2023-04-22T00:05:25.647Z,1.23
2023-04-22T00:07:54.006Z,1.10
2023-04-22T00:10:22.364Z,1.10
2023-04-22T00:12:50.619Z,1.08
2023-04-22T00:15:22.446Z,0.93
2023-04-22T00:17:50.984Z,1.30
2023-04-22T00:20:24.362Z,1.20
2023-04-22T00:22:52.750Z,1.30
2023-04-22T00:25:21.279Z,1.20
2023-04-22T00:27:49.702Z,1.30
2023-04-22T00:30:17.975Z,1.02
2023-04-22T00:32:46.279Z,1.20
2023-04-22T00:35:14.562Z,1.50
2023-04-22T00:37:42.946Z,1.30
2023-04-22T00:40:12.125Z,1.30
2023-04-22T00:42:40.730Z,1.35
2023-04-22T00:45:13.145Z,2.00
2023-04-22T00:47:42.713Z,1.60
2023-04-22T00:50:11.450Z,1.40
2023-04-22T00:52:39.717Z,1.60
2023-04-22T00:55:08.460Z,1.25
2023-04-22T00:57:37.217Z,1.38
2023-04-22T01:00:07.105Z,1.83
2023-04-22T01:02:35.526Z,1.70
2023-04-22T01:05:04.899Z,1.30
2023-04-22T01:07:33.385Z,1.40
2023-04-22T01:10:02.320Z,1.60
2023-04-22T01:12:30.583Z,1.55
2023-04-22T01:14:58.985Z,1.60
2023-04-22T01:17:27.322Z,1.70
2023-04-22T01:19:56.583Z,1.63
2023-04-22T01:22:31.608Z,1.80
2023-04-22T01:25:00.217Z,1.23
2023-04-22T01:27:28.612Z,1.50
2023-04-22T01:29:57.111Z,1.40
2023-04-22T01:32:25.940Z,1.55
2023-04-22T01:34:54.350Z,1.45
2023-04-22T01:37:22.888Z,1.35
2023-04-22T01:39:51.545Z,1.50
2023-04-22T01:42:20.246Z,1.38
2023-04-22T01:44:48.809Z,1.75
2023-04-22T01:47:17.350Z,1.90
2023-04-22T01:49:45.979Z,1.45
2023-04-22T01:52:14.626Z,1.75
2023-04-22T01:54:43.140Z,1.55
2023-04-22T01:57:14.820Z,1.65
2023-04-22T01:59:43.172Z,1.70
2023-04-22T02:02:11.624Z,1.45
2023-04-22T02:04:40.069Z,1.52
2023-04-22T02:07:08.410Z,1.40
2023-04-22T02:09:37.109Z,1.90
2023-04-22T02:12:05.854Z,1.45
2023-04-22T02:14:34.189Z,1.50
2023-04-22T02:17:05.733Z,1.80
2023-04-22T02:19:34.246Z,1.58
2023-04-22T02:22:02.793Z,1.88
2023-04-22T02:24:31.078Z,1.55
2023-04-22T02:26:59.353Z,1.52
2023-04-22T02:29:28.187Z,1.60
2023-04-22T02:31:56.463Z,1.45
2023-04-22T02:34:24.737Z,1.67
2023-04-22T02:36:53.045Z,1.80
2023-04-22T02:39:21.589Z,1.50
2023-04-22T02:41:49.846Z,1.85
2023-04-22T02:44:18.127Z,1.75
2023-04-22T02:46:46.450Z,1.73
2023-04-22T02:49:14.767Z,1.45
2023-04-22T02:51:43.038Z,1.67
2023-04-22T02:54:11.378Z,1.95
2023-04-22T02:56:39.694Z,2.45
2023-04-22T02:59:08.024Z,2.20
2023-04-22T03:01:36.357Z,1.95
2023-04-22T03:04:04.962Z,2.00
2023-04-22T03:06:33.665Z,2.45
2023-04-22T03:09:01.997Z,1.80
2023-04-22T03:11:30.308Z,1.92
2023-04-22T03:13:58.612Z,2.10
2023-04-22T03:16:27.021Z,1.70
2023-04-22T03:18:55.391Z,2.00
2023-04-22T03:21:23.715Z,2.55
2023-04-22T03:23:51.952Z,2.60
2023-04-22T03:26:20.294Z,2.13
2023-04-22T03:28:48.540Z,1.70
2023-04-22T03:31:17.259Z,2.22
2023-04-22T03:33:45.932Z,1.83
2023-04-22T03:36:14.181Z,2.50
2023-04-22T03:38:42.542Z,2.40
2023-04-22T03:41:11.009Z,2.00
2023-04-22T03:43:39.250Z,1.90
2023-04-22T03:46:09.046Z,1.65
2023-04-22T03:48:37.613Z,2.13
2023-04-22T03:51:05.925Z,1.90
2023-04-22T03:53:34.190Z,1.90
2023-04-22T03:56:02.424Z,1.80
2023-04-22T03:58:30.879Z,1.70
2023-04-22T04:00:59.189Z,1.85
2023-04-22T04:03:30.177Z,1.95
2023-04-22T04:05:59.404Z,2.03
2023-04-22T04:08:27.814Z,1.80
2023-04-22T04:10:56.209Z,1.98
2023-04-22T04:13:24.517Z,2.08
2023-04-22T04:15:53.421Z,2.15
2023-04-22T04:18:22.454Z,2.13
2023-04-22T04:20:50.698Z,2.45
2023-04-22T04:23:19.248Z,1.73
2023-04-22T04:25:48.667Z,2.08
2023-04-22T04:28:18.638Z,2.50
2023-04-22T04:30:47.542Z,2.70
2023-04-22T04:33:18.166Z,2.05
2023-04-22T04:35:46.858Z,2.03
2023-04-22T04:38:15.369Z,2.17
2023-04-22T04:40:44.491Z,2.25
2023-04-22T04:43:13.831Z,2.10
2023-04-22T04:45:48.800Z,2.22
2023-04-22T04:48:17.864Z,2.40
2023-04-22T04:50:46.578Z,2.47
2023-04-22T04:53:14.812Z,2.47
2023-04-22T04:55:43.118Z,2.03
2023-04-22T04:58:11.580Z,2.45
2023-04-22T05:00:39.884Z,2.17
2023-04-22T05:03:08.479Z,2.53
2023-04-22T05:05:37.147Z,2.22
2023-04-22T05:08:05.783Z,2.92
2023-04-22T05:10:34.138Z,2.55
2023-04-22T05:13:04.100Z,2.20
2023-04-22T05:15:32.944Z,2.65
2023-04-22T05:18:01.392Z,2.55
2023-04-22T05:20:29.784Z,2.40
2023-04-22T05:22:58.071Z,2.65
2023-04-22T05:25:26.420Z,2.65
2023-04-22T05:27:54.721Z,2.25
2023-04-22T05:30:23.100Z,2.40
2023-04-22T05:32:51.494Z,2.67
2023-04-22T05:35:19.986Z,2.20
2023-04-22T05:37:48.527Z,2.67
2023-04-22T05:40:17.027Z,2.58
2023-04-22T05:42:45.392Z,2.25
2023-04-22T05:45:13.780Z,2.70
2023-04-22T05:47:42.246Z,2.92
2023-04-22T05:50:10.781Z,3.15
2023-04-22T05:52:39.054Z,2.42
2023-04-22T05:55:08.299Z,2.80
2023-04-22T05:57:36.629Z,3.10
2023-04-22T06:00:06.220Z,3.20
2023-04-22T06:02:34.709Z,2.70
2023-04-22T06:05:03.563Z,3.33
2023-04-22T06:07:32.043Z,3.05
2023-04-22T06:10:05.144Z,2.95
2023-04-22T06:12:35.652Z,2.80
2023-04-22T06:15:04.080Z,2.63
2023-04-22T06:17:32.430Z,3.13
2023-04-22T06:20:00.833Z,2.67
2023-04-22T06:22:29.058Z,2.70
2023-04-22T06:24:57.353Z,2.60
2023-04-22T06:27:25.643Z,2.72
2023-04-22T06:29:53.917Z,2.50
2023-04-22T06:32:22.379Z,2.60
2023-04-22T06:34:50.638Z,3.10
2023-04-22T06:37:19.350Z,3.00
2023-04-22T06:39:47.974Z,3.13
2023-04-22T06:42:16.263Z,2.72
2023-04-22T06:44:44.550Z,3.17
2023-04-22T06:47:12.822Z,2.97
2023-04-22T06:49:41.468Z,2.78
2023-04-22T06:52:10.258Z,2.97
2023-04-22T06:54:39.350Z,2.58
2023-04-22T06:57:08.843Z,3.28
2023-04-22T06:59:37.349Z,2.70
2023-04-22T07:02:06.910Z,2.97
2023-04-22T07:04:35.368Z,2.75
2023-04-22T07:07:04.484Z,2.83
2023-04-22T07:09:32.854Z,2.72
2023-04-22T07:12:02.128Z,2.90
2023-04-22T07:14:30.445Z,2.75
2023-04-22T07:16:58.861Z,3.00
2023-04-22T07:19:27.455Z,2.63
2023-04-22T07:21:55.900Z,2.33
2023-04-22T07:24:24.501Z,2.42
2023-04-22T07:26:52.886Z,2.88
2023-04-22T07:29:21.311Z,2.50
2023-04-22T07:31:49.688Z,2.60
2023-04-22T07:34:19.264Z,2.60
2023-04-22T07:36:48.033Z,2.80
2023-04-22T07:39:16.825Z,3.13
2023-04-22T07:41:45.066Z,2.83
2023-04-22T07:44:17.348Z,2.30
2023-04-22T07:46:45.933Z,2.60
2023-04-22T07:49:14.951Z,2.13
2023-04-22T07:51:43.446Z,2.60
2023-04-22T07:54:11.924Z,2.80
2023-04-22T07:56:40.302Z,2.97
2023-04-22T07:59:08.656Z,3.08
2023-04-22T08:01:36.956Z,2.50
2023-04-22T08:04:05.512Z,2.63
2023-04-22T08:06:33.992Z,2.80
2023-04-22T08:09:02.267Z,2.80
2023-04-22T08:11:31.305Z,2.90
2023-04-22T08:13:59.794Z,2.80
2023-04-22T08:16:28.188Z,2.80
2023-04-22T08:18:58.418Z,2.63
2023-04-22T08:21:28.414Z,2.95
2023-04-22T08:23:56.930Z,2.88
2023-04-22T08:26:25.326Z,2.47
2023-04-22T08:28:53.589Z,2.70
2023-04-22T08:31:21.825Z,2.60
2023-04-22T08:33:51.562Z,2.78
2023-04-22T08:36:22.637Z,2.60
2023-04-22T08:38:51.133Z,2.72
2023-04-22T08:41:20.320Z,2.90
2023-04-22T08:43:49.108Z,2.88
2023-04-22T08:46:20.927Z,2.42
2023-04-22T08:48:51.029Z,2.35
2023-04-22T08:51:19.578Z,2.70
2023-04-22T08:53:48.601Z,3.05
2023-04-22T08:56:17.469Z,2.70
2023-04-22T08:58:47.524Z,3.10
2023-04-22T09:01:16.451Z,2.65
2023-04-22T09:03:45.510Z,2.83
2023-04-22T09:06:13.982Z,3.08
2023-04-22T09:08:42.257Z,2.65
2023-04-22T09:11:11.356Z,2.85
2023-04-22T09:13:39.669Z,2.80
2023-04-22T09:16:08.238Z,2.80
2023-04-22T09:18:49.002Z,2.92
2023-04-22T09:21:17.516Z,3.10
2023-04-22T09:23:51.344Z,2.72
2023-04-22T09:26:27.038Z,2.70
2023-04-22T09:28:59.210Z,2.60
2023-04-22T09:31:30.581Z,3.15
2023-04-22T09:34:01.665Z,3.30
2023-04-22T09:36:30.988Z,3.22
2023-04-22T09:39:01.409Z,3.42
2023-04-22T09:41:35.461Z,3.03
2023-04-22T09:44:05.323Z,3.08
2023-04-22T09:46:34.839Z,3.15
2023-04-22T09:49:03.643Z,2.70
2023-04-22T09:51:32.920Z,3.70
2023-04-22T09:54:07.331Z,2.75
2023-04-22T09:56:43.251Z,2.80
2023-04-22T09:59:12.021Z,3.28
2023-04-22T10:01:44.041Z,2.80
2023-04-22T10:04:14.536Z,2.95
2023-04-22T10:06:43.784Z,2.70
2023-04-22T10:09:13.179Z,2.60
2023-04-22T10:11:42.385Z,2.63
2023-04-22T10:14:12.130Z,2.67
2023-04-22T10:16:42.009Z,3.00
2023-04-22T10:19:15.685Z,2.50
2023-04-22T10:21:47.143Z,2.70
2023-04-22T10:24:19.650Z,2.97
2023-04-22T10:26:58.933Z,3.15
2023-04-22T10:29:29.077Z,3.15
2023-04-22T10:32:27.967Z,2.67
2023-04-22T10:35:10.923Z,3.10
2023-04-22T10:37:43.324Z,3.15
2023-04-22T10:40:21.059Z,2.95
2023-04-22T10:42:52.731Z,3.63
2023-04-22T10:45:27.329Z,3.65
2023-04-22T10:50:29.439Z,3.08
2023-04-22T10:53:00.042Z,3.83
2023-04-22T10:55:52.583Z,3.20
2023-04-22T10:58:26.322Z,3.05
2023-04-22T11:01:00.783Z,3.10
2023-04-22T11:03:31.837Z,3.05
2023-04-22T11:06:17.165Z,2.92
2023-04-22T11:08:50.278Z,2.78
2023-04-22T11:11:20.392Z,2.83
2023-04-22T11:13:51.743Z,3.72
2023-04-22T11:16:23.391Z,2.95
2023-04-22T11:18:51.930Z,3.00
2023-04-22T11:21:21.759Z,3.45
2023-04-22T11:23:54.001Z,2.70
2023-04-22T11:26:36.176Z,3.17
2023-04-22T11:29:04.711Z,3.13
2023-04-22T11:31:33.197Z,2.83
2023-04-22T11:34:01.561Z,3.67
2023-04-22T11:36:30.007Z,3.13
2023-04-22T11:38:58.500Z,2.65
2023-04-22T11:41:26.888Z,3.50
2023-04-22T11:43:55.752Z,3.40
2023-04-22T11:46:32.005Z,3.05
2023-04-22T11:49:16.660Z,2.67
2023-04-22T11:51:58.023Z,2.83
2023-04-22T11:54:33.984Z,3.20
2023-04-22T11:57:07.630Z,3.65
2023-04-22T11:59:36.796Z,3.20
2023-04-22T12:02:09.088Z,3.78
2023-04-22T12:04:42.079Z,3.38
2023-04-22T12:07:10.576Z,3.05
2023-04-22T12:09:40.598Z,3.30
2023-04-22T12:12:09.062Z,3.25
2023-04-22T12:14:38.189Z,3.05
2023-04-22T12:17:09.883Z,3.20
2023-04-22T12:19:39.302Z,3.30
2023-04-22T12:22:07.829Z,2.80
2023-04-22T12:24:36.461Z,2.78
2023-04-22T12:27:05.350Z,2.60
2023-04-22T12:29:35.175Z,3.50
2023-04-22T12:32:03.483Z,2.92
2023-04-22T12:34:31.951Z,3.03
2023-04-22T12:37:00.864Z,3.05
2023-04-22T12:39:29.120Z,3.13
2023-04-22T12:41:58.635Z,3.22
2023-04-22T12:44:26.989Z,3.30
2023-04-22T12:46:55.238Z,2.88
2023-04-22T12:49:23.521Z,3.03
2023-04-22T12:51:54.910Z,3.13
2023-04-22T12:54:23.586Z,3.30
2023-04-22T12:56:52.490Z,3.72
2023-04-22T12:59:21.417Z,3.42
2023-04-22T13:01:49.675Z,3.10
2023-04-22T13:04:21.095Z,2.60
2023-04-22T13:06:51.460Z,3.15
2023-04-22T13:09:20.795Z,3.22
2023-04-22T13:11:50.230Z,2.97
2023-04-22T13:14:18.876Z,2.63
2023-04-22T13:16:47.553Z,3.15
2023-04-22T13:19:16.320Z,2.72
2023-04-22T13:21:44.662Z,2.72
2023-04-22T13:24:13.022Z,3.05
2023-04-22T13:26:41.335Z,3.00
2023-04-22T13:29:14.446Z,2.97
2023-04-22T13:31:46.128Z,2.67
2023-04-22T13:34:15.276Z,3.25
2023-04-22T13:36:43.738Z,2.78
2023-04-22T13:39:12.683Z,2.90
2023-04-22T13:41:41.006Z,2.90
2023-04-22T13:44:09.298Z,2.38
2023-04-22T13:46:37.557Z,3.42
2023-04-22T13:49:06.669Z,2.97
2023-04-22T13:51:35.078Z,2.58
2023-04-22T13:54:03.299Z,2.97
2023-04-22T13:56:32.013Z,3.10
2023-04-22T13:59:00.742Z,2.85
2023-04-22T14:01:29.096Z,3.67
2023-04-22T14:03:57.646Z,2.40
2023-04-22T14:06:26.118Z,3.13
2023-04-22T14:08:54.512Z,2.85
2023-04-22T14:11:22.871Z,3.10
2023-04-22T14:13:51.160Z,3.00
2023-04-22T14:16:20.724Z,3.22
2023-04-22T14:18:49.634Z,2.70
2023-04-22T14:21:18.085Z,3.28
2023-04-22T14:23:47.152Z,3.00
2023-04-22T14:26:15.397Z,2.80
2023-04-22T14:28:44.109Z,3.05
2023-04-22T14:31:12.839Z,2.53
2023-04-22T14:33:41.260Z,2.90
2023-04-22T14:36:09.794Z,3.20
2023-04-22T14:38:38.163Z,3.78
2023-04-22T14:41:06.950Z,3.25
2023-04-22T14:43:35.248Z,3.60
2023-04-22T14:46:03.743Z,3.25
2023-04-22T14:48:33.272Z,3.40
2023-04-22T14:51:02.008Z,3.25
2023-04-22T14:53:30.292Z,3.65
2023-04-22T14:55:58.593Z,3.95
2023-04-22T14:58:27.938Z,3.30
2023-04-22T15:00:56.296Z,3.65
2023-04-22T15:03:24.681Z,3.38
2023-04-22T15:05:53.377Z,3.90
2023-04-22T15:08:21.718Z,3.90
2023-04-22T15:10:50.041Z,3.83
2023-04-22T15:13:18.402Z,3.78
2023-04-22T15:15:47.565Z,3.83
2023-04-22T15:18:15.893Z,4.30
2023-04-22T15:20:44.205Z,3.78
2023-04-22T15:23:12.588Z,3.63
2023-04-22T15:25:41.064Z,4.07
2023-04-22T15:28:11.302Z,4.10
2023-04-22T15:30:41.514Z,3.95
2023-04-22T15:33:09.793Z,4.35
2023-04-22T15:35:38.143Z,4.10
2023-04-22T15:38:07.226Z,3.85
2023-04-22T15:40:35.509Z,4.18
2023-04-22T15:43:03.825Z,4.78
2023-04-22T15:45:32.208Z,4.18
2023-04-22T15:48:00.602Z,4.18
2023-04-22T15:50:29.171Z,4.18
2023-04-22T15:52:57.468Z,4.50
2023-04-22T15:55:25.891Z,4.22
2023-04-22T15:57:54.268Z,3.92
2023-04-22T16:00:22.615Z,4.00
2023-04-22T16:02:56.178Z,4.05
2023-04-22T16:05:25.571Z,4.43
2023-04-22T16:07:54.979Z,4.07
2023-04-22T16:10:24.107Z,4.13
2023-04-22T16:12:52.717Z,3.55
2023-04-22T16:15:21.048Z,3.80
2023-04-22T16:17:49.517Z,3.72
2023-04-22T16:20:18.012Z,3.35
2023-04-22T16:22:46.391Z,3.30
2023-04-22T16:25:14.850Z,2.90
2023-04-22T16:27:43.210Z,3.10
2023-04-22T16:30:13.224Z,3.35
2023-04-22T16:32:43.147Z,2.85
2023-04-22T16:35:12.291Z,2.80
2023-04-22T16:37:40.549Z,3.05
2023-04-22T16:40:09.776Z,2.83
2023-04-22T16:42:38.106Z,2.60
2023-04-22T16:45:07.505Z,2.80
2023-04-22T16:47:35.814Z,2.38
2023-04-22T16:50:04.662Z,2.83
2023-04-22T16:52:33.029Z,2.38
2023-04-22T16:55:01.689Z,2.63
2023-04-22T16:57:30.160Z,3.15
2023-04-22T16:59:58.558Z,2.80
2023-04-22T17:02:27.182Z,3.38
2023-04-22T17:04:55.601Z,2.80
2023-04-22T17:07:23.834Z,3.10
2023-04-22T17:09:52.074Z,3.38
2023-04-22T17:12:20.381Z,2.90
2023-04-22T17:14:48.675Z,3.65
2023-04-22T17:17:16.949Z,2.42
2023-04-22T17:19:45.291Z,2.50
2023-04-22T17:22:13.736Z,3.10
2023-04-22T17:24:42.321Z,2.53
2023-04-22T17:27:10.681Z,2.53
2023-04-22T17:29:39.245Z,2.55
2023-04-22T17:32:08.067Z,2.72
2023-04-22T17:34:36.479Z,2.35
2023-04-22T17:37:04.768Z,2.40
2023-04-22T17:39:33.205Z,2.42
2023-04-22T17:42:02.612Z,2.17
2023-04-22T17:44:31.972Z,2.78
2023-04-22T17:47:00.844Z,2.40
2023-04-22T17:49:29.201Z,2.45
2023-04-22T17:51:57.514Z,2.38
2023-04-22T17:54:25.973Z,2.20
2023-04-22T17:56:54.260Z,2.53
2023-04-22T17:59:22.507Z,2.25
2023-04-22T18:01:50.848Z,2.25
2023-04-22T18:04:19.115Z,3.00
2023-04-22T18:06:47.765Z,2.50
2023-04-22T18:09:16.105Z,2.22
2023-04-22T18:11:44.509Z,2.63
2023-04-22T18:14:12.826Z,2.40
2023-04-22T18:16:41.171Z,2.30
2023-04-22T18:19:09.498Z,1.90
2023-04-22T18:21:41.474Z,1.88
2023-04-22T18:24:13.536Z,2.05
2023-04-22T18:26:42.908Z,1.98
2023-04-22T18:29:11.331Z,2.08
2023-04-22T18:31:39.686Z,2.22
2023-04-22T18:34:09.001Z,2.35
2023-04-22T18:36:37.291Z,1.92
2023-04-22T18:39:06.440Z,1.73
2023-04-22T18:41:34.694Z,1.77
2023-04-22T18:44:03.140Z,1.70
2023-04-22T18:46:31.496Z,1.90
2023-04-22T18:48:59.803Z,2.17
2023-04-22T18:51:28.590Z,1.98
2023-04-22T18:53:57.229Z,1.88
2023-04-22T18:56:25.543Z,2.15
2023-04-22T18:58:55.320Z,2.05
2023-04-22T19:01:23.839Z,1.45
2023-04-22T19:03:52.542Z,2.00
2023-04-22T19:06:20.899Z,2.28
2023-04-22T19:08:49.705Z,1.60
2023-04-22T19:11:18.040Z,1.58
2023-04-22T19:13:47.468Z,1.38
2023-04-22T19:16:15.813Z,1.40
2023-04-22T19:18:45.937Z,1.77
2023-04-22T19:21:14.294Z,1.40
2023-04-22T19:23:42.949Z,1.30
2023-04-22T19:26:11.375Z,1.27
2023-04-22T19:28:39.690Z,1.20
2023-04-22T19:31:08.340Z,1.10
2023-04-22T19:33:37.134Z,1.38
2023-04-22T19:36:05.670Z,1.30
2023-04-22T19:38:34.078Z,1.50
2023-04-22T19:41:02.643Z,1.10
2023-04-22T19:43:31.043Z,0.93
2023-04-22T19:45:59.379Z,1.40
2023-04-22T19:48:28.066Z,1.00
2023-04-22T19:50:56.596Z,1.30
2023-04-22T19:53:25.072Z,1.00
2023-04-22T19:55:53.899Z,1.00
2023-04-22T19:58:22.932Z,1.13
2023-04-22T20:00:51.695Z,1.10
2023-04-22T20:03:20.572Z,0.90
2023-04-22T20:05:51.253Z,1.00
2023-04-22T20:08:27.008Z,1.10
2023-04-22T20:10:56.405Z,1.08
2023-04-22T20:13:24.898Z,1.08
2023-04-22T20:15:53.648Z,1.58
2023-04-22T20:18:22.026Z,1.00
2023-04-22T20:20:50.733Z,0.93
2023-04-22T20:23:22.382Z,1.00
2023-04-22T20:25:51.789Z,0.98
2023-04-22T20:28:20.877Z,1.00
2023-04-22T20:30:49.420Z,1.02
2023-04-22T20:33:19.255Z,1.10
2023-04-22T20:35:50.405Z,0.93
2023-04-22T20:38:20.270Z,0.90
2023-04-22T20:40:49.605Z,1.15
2023-04-22T20:43:18.047Z,1.10
2023-04-22T20:45:46.423Z,1.00
2023-04-22T20:48:14.696Z,1.00
2023-04-22T20:50:43.195Z,1.00
2023-04-22T20:53:11.580Z,1.17
2023-04-22T20:55:39.856Z,1.17
2023-04-22T20:58:08.198Z,1.30
2023-04-22T21:00:36.697Z,1.27
2023-04-22T21:03:09.704Z,1.23
2023-04-22T21:05:42.874Z,1.25
2023-04-22T21:08:19.093Z,1.00
2023-04-22T21:10:47.969Z,1.10
2023-04-22T21:13:17.021Z,1.13
2023-04-22T21:16:02.148Z,1.15
2023-04-22T21:18:33.256Z,1.30
2023-04-22T21:21:04.904Z,1.10
2023-04-22T21:23:33.743Z,1.50
2023-04-22T21:26:04.055Z,1.00
2023-04-22T21:28:32.616Z,1.05
2023-04-22T21:31:01.385Z,1.05
2023-04-22T21:33:29.637Z,1.20
2023-04-22T21:35:58.102Z,1.15
2023-04-22T21:38:26.746Z,1.10
2023-04-22T21:40:55.277Z,1.10
2023-04-22T21:43:23.708Z,1.15
2023-04-22T21:45:52.090Z,1.17
2023-04-22T21:48:20.309Z,1.08
2023-04-22T21:50:48.730Z,0.85
2023-04-22T21:53:20.275Z,1.10
2023-04-22T21:55:48.751Z,0.85
2023-04-22T21:58:17.360Z,1.30
2023-04-22T22:00:46.130Z,0.98
2023-04-22T22:03:14.646Z,1.00
2023-04-22T22:05:43.187Z,1.13
2023-04-22T22:08:11.545Z,0.93
2023-04-22T22:10:39.847Z,1.10
2023-04-22T22:13:08.838Z,1.20
2023-04-22T22:15:37.760Z,1.30
2023-04-22T22:18:07.589Z,1.00
2023-04-22T22:20:37.397Z,1.08
2023-04-22T22:23:05.711Z,0.90
2023-04-22T22:25:33.958Z,1.05
2023-04-22T22:28:02.284Z,1.30
2023-04-22T22:30:30.883Z,1.10
2023-04-22T22:32:59.221Z,1.30
2023-04-22T22:35:27.683Z,1.33
2023-04-22T22:37:55.984Z,1.63
2023-04-22T22:40:24.325Z,1.50
2023-04-22T22:42:52.622Z,1.33
2023-04-22T22:45:20.937Z,1.23
2023-04-22T22:47:49.404Z,1.02
2023-04-22T22:50:17.748Z,1.40
2023-04-22T22:52:46.107Z,1.55
2023-04-22T22:55:14.746Z,1.33
2023-04-22T22:57:43.118Z,1.30
2023-04-22T23:00:12.814Z,1.30
2023-04-22T23:02:41.359Z,1.60
2023-04-22T23:05:10.875Z,1.05
2023-04-22T23:07:39.479Z,1.40
2023-04-22T23:10:08.488Z,1.48
2023-04-22T23:12:36.740Z,1.50
2023-04-22T23:15:05.510Z,1.63
2023-04-22T23:17:33.801Z,1.70
2023-04-22T23:20:02.556Z,1.50
2023-04-22T23:22:32.956Z,1.42
2023-04-22T23:25:01.566Z,1.60
2023-04-22T23:27:30.651Z,1.80
2023-04-22T23:29:59.305Z,2.05
2023-04-22T23:32:28.349Z,1.85
2023-04-22T23:34:59.604Z,2.03
2023-04-22T23:37:29.811Z,1.80
2023-04-22T23:39:58.314Z,2.08
2023-04-22T23:42:26.784Z,1.88
2023-04-22T23:44:55.014Z,1.90
2023-04-22T23:47:23.272Z,1.70
2023-04-22T23:49:52.171Z,1.60
2023-04-22T23:52:21.203Z,1.70
2023-04-22T23:54:50.994Z,1.80
2023-04-22T23:57:19.647Z,1.98
2023-04-22T23:59:48.651Z,1.90
